Washington, District of Columbia
Traffic Map
Current Weather Conditions
Washington, District of Columbia
Scattered Clouds
Scattered Clouds
80°
Feels Like: 85°
Wind Chill: 80° Ceiling: Unl
Heat Index: 85° Visibility: 10mi
Dew Point: 74° Wind: 7mph
Humidity: 81% Direction: 170° (S)
Pressure: 30.1in Gusts: 0mph
Raw Report DataKDCA 170552Z 17006KT 10SM SCT250 27/23 A3010 RMK AO2 SLP191 T02670233 10294 20267 58002
Traffic Incident Summary
Active as of:
Severity:
Category:
InformationThere was an issue retrieving the traffic information for this location. Please try a different location or try again shortly.
Advertisements